createdAt,value
2023-03-26T00:01:20.505Z,74
2023-03-26T00:04:20.481Z,74
2023-03-26T00:07:20.499Z,74
2023-03-26T00:10:20.485Z,74
2023-03-26T00:13:20.482Z,74
2023-03-26T00:16:20.515Z,74
2023-03-26T00:19:20.482Z,75
2023-03-26T00:22:20.474Z,75
2023-03-26T00:25:20.467Z,75
2023-03-26T00:28:20.484Z,75
2023-03-26T00:31:20.504Z,75
2023-03-26T00:34:20.484Z,75
2023-03-26T00:37:20.488Z,75
2023-03-26T00:40:20.480Z,75
2023-03-26T00:43:20.486Z,75
2023-03-26T00:46:20.530Z,75
2023-03-26T00:49:20.508Z,75
2023-03-26T00:52:20.495Z,75
2023-03-26T00:55:20.527Z,75
2023-03-26T00:58:20.506Z,75
2023-03-26T01:01:20.508Z,75
2023-03-26T01:04:20.689Z,75
2023-03-26T01:07:20.469Z,75
2023-03-26T01:10:20.482Z,75
2023-03-26T01:13:20.481Z,75
2023-03-26T01:16:20.643Z,75
2023-03-26T01:19:20.481Z,75
2023-03-26T01:22:20.495Z,75
2023-03-26T01:25:20.466Z,75
2023-03-26T01:28:20.474Z,75
2023-03-26T01:31:20.465Z,75
2023-03-26T01:34:20.485Z,75
2023-03-26T01:37:20.448Z,75
2023-03-26T01:40:20.499Z,76
2023-03-26T01:43:20.489Z,76
2023-03-26T01:46:20.492Z,76
2023-03-26T01:49:20.460Z,76
2023-03-26T01:52:20.452Z,76
2023-03-26T01:55:20.474Z,76
2023-03-26T01:58:20.467Z,76
2023-03-26T02:01:20.482Z,76
2023-03-26T02:04:20.444Z,76
2023-03-26T02:07:20.468Z,76
2023-03-26T02:10:20.459Z,76
2023-03-26T02:13:20.514Z,76
2023-03-26T02:16:20.498Z,76
2023-03-26T02:19:20.482Z,76
2023-03-26T02:25:20.475Z,76
2023-03-26T02:28:20.444Z,76
2023-03-26T02:31:20.480Z,76
2023-03-26T02:34:20.499Z,76
2023-03-26T02:37:20.449Z,76
2023-03-26T02:40:20.449Z,76
2023-03-26T02:43:20.446Z,76
2023-03-26T02:46:20.486Z,76
2023-03-26T02:49:20.436Z,76
2023-03-26T02:52:20.437Z,76
2023-03-26T02:55:20.456Z,76
2023-03-26T02:58:20.441Z,76
2023-03-26T03:01:20.436Z,76
2023-03-26T03:04:20.423Z,76
2023-03-26T03:07:20.424Z,76
2023-03-26T03:10:20.430Z,76
2023-03-26T03:13:20.434Z,76
2023-03-26T03:16:20.444Z,76
2023-03-26T03:19:20.435Z,76
2023-03-26T03:22:20.416Z,77
2023-03-26T03:25:20.433Z,77
2023-03-26T03:28:20.420Z,77
2023-03-26T03:31:20.452Z,77
2023-03-26T03:34:20.430Z,77
2023-03-26T03:37:20.426Z,77
2023-03-26T03:40:20.435Z,77
2023-03-26T03:43:20.468Z,77
2023-03-26T03:46:20.485Z,77
2023-03-26T03:49:20.408Z,77
2023-03-26T03:52:20.395Z,77
2023-03-26T03:55:20.422Z,77
2023-03-26T03:58:20.445Z,77
2023-03-26T04:01:20.399Z,77
2023-03-26T04:04:20.439Z,77
2023-03-26T04:07:20.405Z,77
2023-03-26T04:10:20.410Z,77
2023-03-26T04:13:20.392Z,77
2023-03-26T04:16:20.401Z,77
2023-03-26T04:19:20.407Z,77
2023-03-26T04:22:20.397Z,77
2023-03-26T04:25:20.400Z,77
2023-03-26T04:31:20.407Z,78
2023-03-26T04:34:20.404Z,78
2023-03-26T04:40:20.404Z,78
2023-03-26T04:43:20.425Z,78
2023-03-26T04:46:20.395Z,78
2023-03-26T04:49:20.395Z,78
2023-03-26T04:52:20.398Z,78
2023-03-26T04:55:20.388Z,78
2023-03-26T04:58:20.381Z,78
2023-03-26T05:01:20.400Z,78
2023-03-26T05:04:20.430Z,78
2023-03-26T05:07:20.391Z,78
2023-03-26T05:10:20.444Z,78
2023-03-26T05:13:20.394Z,78
2023-03-26T05:16:20.402Z,78
2023-03-26T05:19:20.377Z,78
2023-03-26T05:22:20.393Z,78
2023-03-26T05:25:20.400Z,79
2023-03-26T05:28:20.374Z,79
2023-03-26T05:31:20.413Z,79
2023-03-26T05:34:20.406Z,79
2023-03-26T05:37:20.419Z,79
2023-03-26T05:40:20.410Z,79
2023-03-26T05:43:20.410Z,79
2023-03-26T05:46:20.519Z,79
2023-03-26T05:52:20.398Z,79
2023-03-26T05:55:20.405Z,79
2023-03-26T05:58:20.407Z,79
2023-03-26T06:01:20.395Z,79
2023-03-26T06:04:20.453Z,79
2023-03-26T06:07:20.390Z,79
2023-03-26T06:10:20.398Z,79
2023-03-26T06:13:20.392Z,79
2023-03-26T06:16:26.445Z,79
2023-03-26T06:19:20.403Z,79
2023-03-26T06:22:20.384Z,79
2023-03-26T06:25:20.385Z,79
2023-03-26T06:28:20.416Z,79
2023-03-26T06:31:20.415Z,79
2023-03-26T06:34:20.440Z,79
2023-03-26T06:37:20.429Z,79
2023-03-26T06:40:20.447Z,79
2023-03-26T06:43:20.436Z,79
2023-03-26T06:46:20.488Z,79
2023-03-26T06:49:20.480Z,79
2023-03-26T06:52:20.434Z,79
2023-03-26T06:58:20.452Z,79
2023-03-26T07:01:20.473Z,79
2023-03-26T07:04:20.489Z,79
2023-03-26T07:07:20.439Z,79
2023-03-26T07:10:20.448Z,79
2023-03-26T07:13:20.451Z,79
2023-03-26T07:16:20.497Z,79
2023-03-26T07:19:20.440Z,79
2023-03-26T07:22:20.435Z,79
2023-03-26T07:25:20.444Z,79
2023-03-26T07:31:20.447Z,79
2023-03-26T07:34:20.425Z,79
2023-03-26T07:37:20.419Z,79
2023-03-26T07:40:20.430Z,79
2023-03-26T07:43:20.435Z,79
2023-03-26T07:46:20.460Z,80
2023-03-26T07:49:20.428Z,80
2023-03-26T07:52:20.402Z,80
2023-03-26T07:55:20.410Z,80
2023-03-26T07:58:20.424Z,80
2023-03-26T08:01:20.406Z,80
2023-03-26T08:04:23.091Z,80
2023-03-26T08:07:20.407Z,80
2023-03-26T08:10:20.441Z,80
2023-03-26T08:13:20.419Z,80
2023-03-26T08:16:20.413Z,80
2023-03-26T08:19:20.429Z,80
2023-03-26T08:22:20.433Z,80
2023-03-26T08:25:20.826Z,81
2023-03-26T08:28:20.676Z,81
2023-03-26T08:31:20.688Z,81
2023-03-26T08:34:20.683Z,81
2023-03-26T08:37:20.677Z,81
2023-03-26T08:40:20.675Z,81
2023-03-26T08:43:20.670Z,81
2023-03-26T08:46:20.716Z,81
2023-03-26T08:49:21.056Z,81
2023-03-26T08:52:20.669Z,81
2023-03-26T08:55:20.685Z,81
2023-03-26T08:58:20.656Z,81
2023-03-26T09:01:20.662Z,81
2023-03-26T09:07:20.654Z,81
2023-03-26T09:10:20.660Z,81
2023-03-26T09:13:20.666Z,82
2023-03-26T09:16:20.728Z,82
2023-03-26T09:19:20.654Z,82
2023-03-26T09:22:20.646Z,82
2023-03-26T09:25:20.666Z,82
2023-03-26T09:28:20.680Z,82
2023-03-26T09:31:20.694Z,82
2023-03-26T09:34:20.688Z,82
2023-03-26T09:37:20.669Z,82
2023-03-26T09:40:20.670Z,82
2023-03-26T09:43:20.657Z,82
2023-03-26T09:46:20.689Z,82
2023-03-26T09:49:20.656Z,82
2023-03-26T09:52:20.650Z,82
2023-03-26T09:55:20.650Z,82
2023-03-26T09:58:20.659Z,82
2023-03-26T10:01:20.756Z,82
2023-03-26T10:04:20.694Z,82
2023-03-26T10:07:20.656Z,82
2023-03-26T10:10:20.665Z,82
2023-03-26T10:13:20.721Z,82
2023-03-26T10:16:20.697Z,82
2023-03-26T10:19:20.657Z,82
2023-03-26T10:22:20.664Z,82
2023-03-26T10:25:20.644Z,82
2023-03-26T10:28:20.653Z,82
2023-03-26T10:31:20.684Z,82
2023-03-26T10:34:28.276Z,82
2023-03-26T10:37:20.668Z,82
2023-03-26T10:40:20.659Z,82
2023-03-26T10:43:20.636Z,82
2023-03-26T10:46:20.658Z,82
2023-03-26T10:49:20.655Z,82
2023-03-26T10:52:20.641Z,82
2023-03-26T10:55:20.726Z,82
2023-03-26T10:58:20.634Z,82
2023-03-26T11:01:20.639Z,82
2023-03-26T11:04:20.629Z,82
2023-03-26T11:07:20.597Z,82
2023-03-26T11:10:20.615Z,82
2023-03-26T11:13:20.631Z,82
2023-03-26T11:16:21.036Z,81
2023-03-26T11:19:20.849Z,81
2023-03-26T11:22:20.629Z,81
2023-03-26T11:25:20.641Z,81
2023-03-26T11:28:20.626Z,81
2023-03-26T11:31:20.660Z,81
2023-03-26T11:34:20.626Z,81
2023-03-26T11:37:20.636Z,81
2023-03-26T11:40:20.635Z,81
2023-03-26T11:43:20.636Z,81
2023-03-26T11:46:20.681Z,81
2023-03-26T11:49:20.664Z,81
2023-03-26T11:52:20.634Z,81
2023-03-26T11:55:20.605Z,81
2023-03-26T11:58:20.602Z,81
2023-03-26T12:01:20.607Z,81
2023-03-26T12:04:20.619Z,81
2023-03-26T12:07:20.597Z,81
2023-03-26T12:10:20.647Z,81
2023-03-26T12:13:20.612Z,81
2023-03-26T12:16:20.625Z,81
2023-03-26T12:19:20.583Z,81
2023-03-26T12:22:20.601Z,81
2023-03-26T12:25:20.585Z,81
2023-03-26T12:28:20.616Z,81
2023-03-26T12:34:20.583Z,81
2023-03-26T12:37:20.589Z,81
2023-03-26T12:40:22.239Z,81
2023-03-26T12:44:52.134Z,81
2023-03-26T12:47:15.178Z,81
2023-03-26T12:49:20.656Z,81
2023-03-26T12:55:20.605Z,81
2023-03-26T12:58:20.617Z,81
2023-03-26T13:01:20.602Z,81
2023-03-26T13:04:20.583Z,81
2023-03-26T13:07:20.596Z,81
2023-03-26T13:10:20.588Z,81
2023-03-26T13:13:20.591Z,81
2023-03-26T13:16:20.626Z,80
2023-03-26T13:19:20.609Z,80
2023-03-26T13:22:20.575Z,80
2023-03-26T13:25:20.587Z,80
2023-03-26T13:28:20.591Z,80
2023-03-26T13:31:20.620Z,80
2023-03-26T13:34:20.582Z,80
2023-03-26T13:37:20.579Z,80
2023-03-26T13:40:20.574Z,80
2023-03-26T13:43:20.578Z,80
2023-03-26T13:46:20.602Z,80
2023-03-26T13:49:20.580Z,80
2023-03-26T13:52:20.583Z,80
2023-03-26T13:55:20.595Z,80
2023-03-26T13:58:20.560Z,80
2023-03-26T14:01:20.575Z,80
2023-03-26T14:04:20.578Z,80
2023-03-26T14:07:20.575Z,80
2023-03-26T14:10:20.637Z,80
2023-03-26T14:13:20.781Z,80
2023-03-26T14:16:20.865Z,80
2023-03-26T14:19:20.599Z,80
2023-03-26T14:22:20.601Z,80
2023-03-26T14:25:20.615Z,80
2023-03-26T14:28:20.603Z,80
2023-03-26T14:31:20.717Z,80
2023-03-26T14:34:20.599Z,80
2023-03-26T14:37:27.076Z,80
2023-03-26T14:40:20.641Z,79
2023-03-26T14:46:20.654Z,79
2023-03-26T14:49:20.605Z,79
2023-03-26T14:52:20.606Z,79
2023-03-26T14:55:20.596Z,79
2023-03-26T14:58:20.609Z,79
2023-03-26T15:01:20.632Z,79
2023-03-26T15:04:20.597Z,79
2023-03-26T15:07:20.603Z,79
2023-03-26T15:10:20.603Z,78
2023-03-26T15:13:20.614Z,78
2023-03-26T15:16:20.615Z,78
2023-03-26T15:19:20.602Z,78
2023-03-26T15:22:20.584Z,78
2023-03-26T15:25:20.585Z,78
2023-03-26T15:28:20.587Z,78
2023-03-26T15:31:20.615Z,78
2023-03-26T15:34:20.581Z,78
2023-03-26T15:37:20.620Z,77
2023-03-26T15:40:20.606Z,77
2023-03-26T15:43:20.591Z,77
2023-03-26T15:46:20.590Z,77
2023-03-26T15:49:20.578Z,76
2023-03-26T15:52:20.585Z,76
2023-03-26T15:55:20.579Z,76
2023-03-26T15:58:20.602Z,76
2023-03-26T16:01:20.610Z,76
2023-03-26T16:04:20.572Z,76
2023-03-26T16:07:20.572Z,76
2023-03-26T16:10:20.573Z,76
2023-03-26T16:13:20.571Z,76
2023-03-26T16:16:20.572Z,76
2023-03-26T16:19:20.572Z,76
2023-03-26T16:22:20.570Z,77
2023-03-26T16:25:27.555Z,77
2023-03-26T16:28:20.574Z,77
2023-03-26T16:31:23.694Z,77
2023-03-26T16:34:20.564Z,77
2023-03-26T16:37:20.570Z,77
2023-03-26T16:40:20.585Z,78
2023-03-26T16:43:20.568Z,78
2023-03-26T16:46:20.565Z,78
2023-03-26T16:49:20.603Z,78
2023-03-26T16:52:20.571Z,78
2023-03-26T16:55:20.560Z,78
2023-03-26T16:58:20.568Z,79
2023-03-26T17:01:20.773Z,79
2023-03-26T17:04:20.614Z,79
2023-03-26T17:07:20.566Z,79
2023-03-26T17:10:20.578Z,79
2023-03-26T17:13:20.563Z,79
2023-03-26T17:16:20.599Z,79
2023-03-26T17:19:20.578Z,79
2023-03-26T17:22:20.573Z,79
2023-03-26T17:25:20.567Z,79
2023-03-26T17:28:20.602Z,79
2023-03-26T17:31:20.561Z,79
2023-03-26T17:34:20.729Z,79
2023-03-26T17:37:20.549Z,79
2023-03-26T17:40:20.584Z,79
2023-03-26T17:43:20.558Z,79
2023-03-26T17:46:20.571Z,80
2023-03-26T17:49:20.560Z,80
2023-03-26T17:52:20.550Z,80
2023-03-26T17:55:20.551Z,80
2023-03-26T17:58:20.551Z,80
2023-03-26T18:01:20.597Z,80
2023-03-26T18:04:20.556Z,80
2023-03-26T18:07:20.549Z,80
2023-03-26T18:10:20.555Z,80
2023-03-26T18:13:20.551Z,80
2023-03-26T18:16:20.596Z,80
2023-03-26T18:19:20.616Z,80
2023-03-26T18:22:20.549Z,80
2023-03-26T18:25:20.558Z,80
2023-03-26T18:28:20.562Z,80
2023-03-26T18:31:20.569Z,81
2023-03-26T18:34:20.547Z,81
2023-03-26T18:37:20.546Z,81
2023-03-26T18:40:20.550Z,81
2023-03-26T18:43:28.763Z,81
2023-03-26T18:46:20.570Z,81
2023-03-26T18:49:20.544Z,81
2023-03-26T18:52:20.541Z,81
2023-03-26T18:55:20.546Z,81
2023-03-26T18:58:20.534Z,81
2023-03-26T19:01:25.657Z,81
2023-03-26T19:04:20.538Z,81
2023-03-26T19:07:20.529Z,81
2023-03-26T19:10:20.535Z,81
2023-03-26T19:13:20.538Z,81
2023-03-26T19:19:20.554Z,81
2023-03-26T19:22:20.536Z,81
2023-03-26T19:25:20.534Z,81
2023-03-26T19:28:20.522Z,81
2023-03-26T19:31:20.628Z,81
2023-03-26T19:34:20.528Z,82
2023-03-26T19:37:20.531Z,82
2023-03-26T19:40:20.552Z,82
2023-03-26T19:43:20.562Z,82
2023-03-26T19:46:20.545Z,82
2023-03-26T19:49:20.547Z,82
2023-03-26T19:52:20.528Z,82
2023-03-26T19:55:20.508Z,82
2023-03-26T19:58:20.517Z,82
2023-03-26T20:01:20.529Z,82
2023-03-26T20:04:20.508Z,82
2023-03-26T20:07:20.509Z,82
2023-03-26T20:10:20.528Z,82
2023-03-26T20:13:20.514Z,82
2023-03-26T20:16:20.585Z,82
2023-03-26T20:19:20.521Z,82
2023-03-26T20:22:20.520Z,82
2023-03-26T20:25:20.534Z,82
2023-03-26T20:28:20.541Z,82
2023-03-26T20:31:20.521Z,82
2023-03-26T20:34:20.517Z,82
2023-03-26T20:37:20.499Z,82
2023-03-26T20:40:20.508Z,82
2023-03-26T20:43:20.536Z,82
2023-03-26T20:46:20.495Z,82
2023-03-26T20:49:20.504Z,82
2023-03-26T20:52:20.492Z,82
2023-03-26T20:55:20.482Z,82
2023-03-26T20:58:20.500Z,82
2023-03-26T21:01:20.514Z,82
2023-03-26T21:04:20.518Z,82
2023-03-26T21:07:20.479Z,82
2023-03-26T21:10:20.497Z,82
2023-03-26T21:13:20.480Z,82
2023-03-26T21:16:20.500Z,82
2023-03-26T21:19:20.481Z,82
2023-03-26T21:22:20.476Z,82
2023-03-26T21:25:20.481Z,82
2023-03-26T21:28:22.060Z,82
2023-03-26T21:31:20.498Z,82
2023-03-26T21:34:20.472Z,82
2023-03-26T21:37:20.509Z,82
2023-03-26T21:40:20.482Z,82
2023-03-26T21:43:20.485Z,82
2023-03-26T21:46:20.493Z,82
2023-03-26T21:49:20.469Z,82
2023-03-26T21:52:20.464Z,82
2023-03-26T21:55:20.470Z,82
2023-03-26T21:58:20.456Z,82
2023-03-26T22:04:20.463Z,82
2023-03-26T22:07:20.453Z,82
2023-03-26T22:10:20.456Z,82
2023-03-26T22:13:20.460Z,82
2023-03-26T22:16:20.471Z,82
2023-03-26T22:19:20.455Z,82
2023-03-26T22:22:20.451Z,82
2023-03-26T22:25:20.447Z,82
2023-03-26T22:28:20.440Z,82
2023-03-26T22:31:20.466Z,82
2023-03-26T22:34:20.467Z,82
2023-03-26T22:40:20.446Z,82
2023-03-26T22:43:20.434Z,82
2023-03-26T22:46:20.450Z,82
2023-03-26T22:49:20.446Z,82
2023-03-26T22:52:20.438Z,82
2023-03-26T22:55:28.559Z,82
2023-03-26T22:58:20.454Z,82
2023-03-26T23:01:20.450Z,82
2023-03-26T23:04:31.045Z,82
2023-03-26T23:07:20.422Z,82
2023-03-26T23:10:20.423Z,82
2023-03-26T23:13:20.423Z,82
2023-03-26T23:16:20.457Z,82
2023-03-26T23:19:20.430Z,82
2023-03-26T23:22:20.424Z,82
2023-03-26T23:25:20.417Z,82
2023-03-26T23:28:20.425Z,82
2023-03-26T23:31:20.460Z,82
2023-03-26T23:34:20.429Z,82
2023-03-26T23:37:20.420Z,82
2023-03-26T23:40:20.420Z,82
2023-03-26T23:43:20.425Z,82
2023-03-26T23:46:20.434Z,82
2023-03-26T23:49:20.434Z,82
2023-03-26T23:55:20.405Z,82
2023-03-26T23:58:20.421Z,82
